sensor_id;sensor_type;location;lat;lon;timestamp;P1;durP1;ratioP1;P2;durP2;ratioP2
1154;SDS011;566;48.414;9.118;2023-05-19T00:00:01;10.98;;;4.80;;
1154;SDS011;566;48.414;9.118;2023-05-19T00:02:27;11.65;;;4.65;;
1154;SDS011;566;48.414;9.118;2023-05-19T00:04:57;12.23;;;5.22;;
1154;SDS011;566;48.414;9.118;2023-05-19T00:07:25;10.98;;;4.30;;
1154;SDS011;566;48.414;9.118;2023-05-19T00:09:55;11.10;;;4.82;;
1154;SDS011;566;48.414;9.118;2023-05-19T00:12:22;10.82;;;4.13;;
1154;SDS011;566;48.414;9.118;2023-05-19T00:14:47;9.98;;;3.80;;
1154;SDS011;566;48.414;9.118;2023-05-19T00:17:13;11.25;;;3.88;;
1154;SDS011;566;48.414;9.118;2023-05-19T00:19:40;10.98;;;3.63;;
1154;SDS011;566;48.414;9.118;2023-05-19T00:22:06;9.77;;;3.55;;
1154;SDS011;566;48.414;9.118;2023-05-19T00:24:32;12.80;;;3.70;;
1154;SDS011;566;48.414;9.118;2023-05-19T00:26:58;14.10;;;4.63;;
1154;SDS011;566;48.414;9.118;2023-05-19T00:29:23;12.13;;;4.00;;
1154;SDS011;566;48.414;9.118;2023-05-19T00:31:52;10.88;;;4.10;;
1154;SDS011;566;48.414;9.118;2023-05-19T00:34:18;8.93;;;3.90;;
1154;SDS011;566;48.414;9.118;2023-05-19T00:36:44;7.45;;;3.58;;
1154;SDS011;566;48.414;9.118;2023-05-19T00:39:09;8.60;;;3.53;;
1154;SDS011;566;48.414;9.118;2023-05-19T00:41:35;9.02;;;3.40;;
1154;SDS011;566;48.414;9.118;2023-05-19T00:44:01;9.10;;;3.30;;
1154;SDS011;566;48.414;9.118;2023-05-19T00:46:26;10.02;;;3.78;;
1154;SDS011;566;48.414;9.118;2023-05-19T00:48:52;9.15;;;3.90;;
1154;SDS011;566;48.414;9.118;2023-05-19T00:51:17;9.40;;;3.60;;
1154;SDS011;566;48.414;9.118;2023-05-19T00:53:43;7.60;;;3.28;;
1154;SDS011;566;48.414;9.118;2023-05-19T00:56:13;7.55;;;3.20;;
1154;SDS011;566;48.414;9.118;2023-05-19T00:58:40;8.77;;;3.85;;
1154;SDS011;566;48.414;9.118;2023-05-19T01:01:06;7.70;;;3.33;;
1154;SDS011;566;48.414;9.118;2023-05-19T01:03:32;11.50;;;4.22;;
1154;SDS011;566;48.414;9.118;2023-05-19T01:06:00;6.30;;;3.55;;
1154;SDS011;566;48.414;9.118;2023-05-19T01:08:29;8.80;;;3.72;;
1154;SDS011;566;48.414;9.118;2023-05-19T01:10:59;10.13;;;3.80;;
1154;SDS011;566;48.414;9.118;2023-05-19T01:13:25;7.15;;;3.47;;
1154;SDS011;566;48.414;9.118;2023-05-19T01:18:37;6.57;;;3.80;;
1154;SDS011;566;48.414;9.118;2023-05-19T01:24:44;13.57;;;4.15;;
1154;SDS011;566;48.414;9.118;2023-05-19T01:27:54;10.40;;;4.10;;
1154;SDS011;566;48.414;9.118;2023-05-19T01:30:37;9.32;;;4.63;;
1154;SDS011;566;48.414;9.118;2023-05-19T01:33:06;9.45;;;3.70;;
1154;SDS011;566;48.414;9.118;2023-05-19T01:35:36;8.48;;;4.10;;
1154;SDS011;566;48.414;9.118;2023-05-19T01:38:04;7.97;;;3.80;;
1154;SDS011;566;48.414;9.118;2023-05-19T01:40:34;8.27;;;3.88;;
1154;SDS011;566;48.414;9.118;2023-05-19T01:43:02;10.32;;;4.10;;
1154;SDS011;566;48.414;9.118;2023-05-19T01:45:29;11.15;;;4.10;;
1154;SDS011;566;48.414;9.118;2023-05-19T01:47:57;10.20;;;4.15;;
1154;SDS011;566;48.414;9.118;2023-05-19T01:50:25;9.00;;;4.15;;
1154;SDS011;566;48.414;9.118;2023-05-19T01:52:51;8.68;;;4.13;;
1154;SDS011;566;48.414;9.118;2023-05-19T01:55:17;8.70;;;3.92;;
1154;SDS011;566;48.414;9.118;2023-05-19T02:00:52;6.88;;;3.45;;
1154;SDS011;566;48.414;9.118;2023-05-19T02:09:17;7.75;;;3.78;;
1154;SDS011;566;48.414;9.118;2023-05-19T02:12:05;8.43;;;3.42;;
1154;SDS011;566;48.414;9.118;2023-05-19T02:17:29;9.45;;;3.92;;
1154;SDS011;566;48.414;9.118;2023-05-19T02:20:05;7.55;;;3.92;;
1154;SDS011;566;48.414;9.118;2023-05-19T02:22:34;6.85;;;4.00;;
1154;SDS011;566;48.414;9.118;2023-05-19T02:25:00;8.32;;;3.85;;
1154;SDS011;566;48.414;9.118;2023-05-19T02:27:25;8.88;;;4.07;;
1154;SDS011;566;48.414;9.118;2023-05-19T02:29:51;7.75;;;4.18;;
1154;SDS011;566;48.414;9.118;2023-05-19T02:32:20;8.00;;;4.10;;
1154;SDS011;566;48.414;9.118;2023-05-19T02:34:45;10.50;;;3.95;;
1154;SDS011;566;48.414;9.118;2023-05-19T02:37:12;7.22;;;4.22;;
1154;SDS011;566;48.414;9.118;2023-05-19T02:39:38;5.95;;;3.50;;
1154;SDS011;566;48.414;9.118;2023-05-19T02:42:08;8.55;;;4.15;;
1154;SDS011;566;48.414;9.118;2023-05-19T02:44:33;7.00;;;4.65;;
1154;SDS011;566;48.414;9.118;2023-05-19T02:46:59;7.65;;;4.10;;
1154;SDS011;566;48.414;9.118;2023-05-19T02:49:24;10.20;;;4.32;;
1154;SDS011;566;48.414;9.118;2023-05-19T02:51:50;12.07;;;5.07;;
1154;SDS011;566;48.414;9.118;2023-05-19T02:54:16;7.35;;;4.28;;
1154;SDS011;566;48.414;9.118;2023-05-19T02:56:41;8.98;;;4.65;;
1154;SDS011;566;48.414;9.118;2023-05-19T02:59:07;9.60;;;4.65;;
1154;SDS011;566;48.414;9.118;2023-05-19T03:01:32;8.38;;;4.85;;
1154;SDS011;566;48.414;9.118;2023-05-19T03:03:58;9.93;;;5.03;;
1154;SDS011;566;48.414;9.118;2023-05-19T03:06:23;8.55;;;4.32;;
1154;SDS011;566;48.414;9.118;2023-05-19T03:08:49;9.68;;;4.70;;
1154;SDS011;566;48.414;9.118;2023-05-19T03:11:15;9.13;;;4.50;;
1154;SDS011;566;48.414;9.118;2023-05-19T03:13:41;8.07;;;4.68;;
1154;SDS011;566;48.414;9.118;2023-05-19T03:16:06;9.05;;;4.63;;
1154;SDS011;566;48.414;9.118;2023-05-19T03:18:35;9.75;;;4.72;;
1154;SDS011;566;48.414;9.118;2023-05-19T03:21:01;8.70;;;4.40;;
1154;SDS011;566;48.414;9.118;2023-05-19T03:23:27;8.82;;;4.95;;
1154;SDS011;566;48.414;9.118;2023-05-19T03:25:53;8.55;;;4.90;;
1154;SDS011;566;48.414;9.118;2023-05-19T03:28:19;11.10;;;5.03;;
1154;SDS011;566;48.414;9.118;2023-05-19T03:30:47;10.55;;;4.60;;
1154;SDS011;566;48.414;9.118;2023-05-19T03:33:14;8.93;;;5.00;;
1154;SDS011;566;48.414;9.118;2023-05-19T03:35:40;11.50;;;4.20;;
1154;SDS011;566;48.414;9.118;2023-05-19T03:38:06;8.90;;;4.60;;
1154;SDS011;566;48.414;9.118;2023-05-19T03:40:31;8.65;;;4.78;;
1154;SDS011;566;48.414;9.118;2023-05-19T03:42:57;8.80;;;4.70;;
1154;SDS011;566;48.414;9.118;2023-05-19T03:45:24;7.78;;;4.70;;
1154;SDS011;566;48.414;9.118;2023-05-19T03:47:50;8.63;;;4.90;;
1154;SDS011;566;48.414;9.118;2023-05-19T03:50:16;7.93;;;4.40;;
1154;SDS011;566;48.414;9.118;2023-05-19T03:52:41;9.88;;;4.57;;
1154;SDS011;566;48.414;9.118;2023-05-19T03:55:09;8.13;;;4.38;;
1154;SDS011;566;48.414;9.118;2023-05-19T03:57:35;8.77;;;4.45;;
1154;SDS011;566;48.414;9.118;2023-05-19T04:00:02;8.15;;;3.92;;
1154;SDS011;566;48.414;9.118;2023-05-19T04:02:29;8.73;;;4.47;;
1154;SDS011;566;48.414;9.118;2023-05-19T04:04:55;8.75;;;4.35;;
1154;SDS011;566;48.414;9.118;2023-05-19T04:07:21;12.18;;;4.80;;
1154;SDS011;566;48.414;9.118;2023-05-19T04:09:47;7.03;;;3.85;;
1154;SDS011;566;48.414;9.118;2023-05-19T04:12:13;9.18;;;4.85;;
1154;SDS011;566;48.414;9.118;2023-05-19T04:14:39;12.23;;;6.65;;
1154;SDS011;566;48.414;9.118;2023-05-19T04:17:08;12.35;;;4.93;;
1154;SDS011;566;48.414;9.118;2023-05-19T04:19:33;13.30;;;5.40;;
1154;SDS011;566;48.414;9.118;2023-05-19T04:21:59;11.85;;;6.05;;
1154;SDS011;566;48.414;9.118;2023-05-19T04:24:25;15.80;;;6.40;;
1154;SDS011;566;48.414;9.118;2023-05-19T04:26:50;10.55;;;5.13;;
1154;SDS011;566;48.414;9.118;2023-05-19T04:29:17;10.23;;;5.13;;
1154;SDS011;566;48.414;9.118;2023-05-19T04:31:43;9.57;;;5.45;;
1154;SDS011;566;48.414;9.118;2023-05-19T04:34:09;15.15;;;5.95;;
1154;SDS011;566;48.414;9.118;2023-05-19T04:36:35;12.63;;;5.65;;
1154;SDS011;566;48.414;9.118;2023-05-19T04:39:01;13.77;;;5.70;;
1154;SDS011;566;48.414;9.118;2023-05-19T04:41:34;13.57;;;6.00;;
1154;SDS011;566;48.414;9.118;2023-05-19T04:43:59;18.10;;;6.70;;
1154;SDS011;566;48.414;9.118;2023-05-19T04:46:25;12.73;;;5.05;;
1154;SDS011;566;48.414;9.118;2023-05-19T04:48:51;13.73;;;5.25;;
1154;SDS011;566;48.414;9.118;2023-05-19T04:51:19;12.18;;;5.20;;
1154;SDS011;566;48.414;9.118;2023-05-19T04:53:45;12.63;;;5.22;;
1154;SDS011;566;48.414;9.118;2023-05-19T04:56:10;12.70;;;5.60;;
1154;SDS011;566;48.414;9.118;2023-05-19T04:58:39;12.75;;;5.75;;
1154;SDS011;566;48.414;9.118;2023-05-19T05:01:05;10.10;;;5.10;;
1154;SDS011;566;48.414;9.118;2023-05-19T05:03:33;11.48;;;5.30;;
1154;SDS011;566;48.414;9.118;2023-05-19T05:05:59;12.80;;;4.68;;
1154;SDS011;566;48.414;9.118;2023-05-19T05:08:24;11.07;;;5.20;;
1154;SDS011;566;48.414;9.118;2023-05-19T05:10:51;13.98;;;5.13;;
1154;SDS011;566;48.414;9.118;2023-05-19T05:13:17;14.27;;;5.60;;
1154;SDS011;566;48.414;9.118;2023-05-19T05:15:47;11.68;;;5.28;;
1154;SDS011;566;48.414;9.118;2023-05-19T05:18:14;14.80;;;5.30;;
1154;SDS011;566;48.414;9.118;2023-05-19T05:20:41;11.82;;;5.38;;
1154;SDS011;566;48.414;9.118;2023-05-19T05:23:07;12.15;;;5.15;;
1154;SDS011;566;48.414;9.118;2023-05-19T05:25:34;13.85;;;5.05;;
1154;SDS011;566;48.414;9.118;2023-05-19T05:28:00;12.13;;;5.63;;
1154;SDS011;566;48.414;9.118;2023-05-19T05:30:29;10.45;;;5.45;;
1154;SDS011;566;48.414;9.118;2023-05-19T05:32:56;12.52;;;5.20;;
1154;SDS011;566;48.414;9.118;2023-05-19T05:35:22;13.65;;;5.10;;
1154;SDS011;566;48.414;9.118;2023-05-19T05:37:48;12.10;;;4.60;;
1154;SDS011;566;48.414;9.118;2023-05-19T05:40:14;11.73;;;4.78;;
1154;SDS011;566;48.414;9.118;2023-05-19T05:42:40;10.45;;;4.40;;
1154;SDS011;566;48.414;9.118;2023-05-19T05:45:06;10.32;;;3.58;;
1154;SDS011;566;48.414;9.118;2023-05-19T05:47:32;12.43;;;4.63;;
1154;SDS011;566;48.414;9.118;2023-05-19T05:50:07;13.95;;;4.80;;
1154;SDS011;566;48.414;9.118;2023-05-19T05:52:33;12.13;;;4.70;;
1154;SDS011;566;48.414;9.118;2023-05-19T05:55:01;12.57;;;4.93;;
1154;SDS011;566;48.414;9.118;2023-05-19T05:57:27;12.98;;;4.32;;
1154;SDS011;566;48.414;9.118;2023-05-19T05:59:54;10.70;;;4.82;;
1154;SDS011;566;48.414;9.118;2023-05-19T06:02:20;9.40;;;4.45;;
1154;SDS011;566;48.414;9.118;2023-05-19T06:04:46;11.85;;;4.78;;
1154;SDS011;566;48.414;9.118;2023-05-19T06:07:11;10.85;;;5.18;;
1154;SDS011;566;48.414;9.118;2023-05-19T06:09:37;13.63;;;4.72;;
1154;SDS011;566;48.414;9.118;2023-05-19T06:12:03;10.40;;;4.22;;
1154;SDS011;566;48.414;9.118;2023-05-19T06:14:28;15.90;;;5.38;;
1154;SDS011;566;48.414;9.118;2023-05-19T06:16:54;14.70;;;5.18;;
1154;SDS011;566;48.414;9.118;2023-05-19T06:19:20;15.35;;;5.28;;
1154;SDS011;566;48.414;9.118;2023-05-19T06:21:45;14.65;;;5.32;;
1154;SDS011;566;48.414;9.118;2023-05-19T06:24:11;16.50;;;5.03;;
1154;SDS011;566;48.414;9.118;2023-05-19T06:26:37;11.07;;;4.55;;
1154;SDS011;566;48.414;9.118;2023-05-19T06:29:02;11.52;;;4.93;;
1154;SDS011;566;48.414;9.118;2023-05-19T06:31:28;12.40;;;4.50;;
1154;SDS011;566;48.414;9.118;2023-05-19T06:33:54;10.35;;;4.50;;
1154;SDS011;566;48.414;9.118;2023-05-19T06:36:21;11.80;;;4.60;;
1154;SDS011;566;48.414;9.118;2023-05-19T06:38:51;12.05;;;4.90;;
1154;SDS011;566;48.414;9.118;2023-05-19T06:41:17;11.43;;;4.72;;
1154;SDS011;566;48.414;9.118;2023-05-19T06:43:43;10.32;;;4.32;;
1154;SDS011;566;48.414;9.118;2023-05-19T06:46:08;12.55;;;4.93;;
1154;SDS011;566;48.414;9.118;2023-05-19T06:48:34;10.00;;;4.25;;
1154;SDS011;566;48.414;9.118;2023-05-19T06:51:00;10.85;;;3.97;;
1154;SDS011;566;48.414;9.118;2023-05-19T06:53:25;9.88;;;4.28;;
1154;SDS011;566;48.414;9.118;2023-05-19T06:55:51;8.88;;;4.07;;
1154;SDS011;566;48.414;9.118;2023-05-19T06:58:16;9.25;;;4.03;;
1154;SDS011;566;48.414;9.118;2023-05-19T07:00:42;10.98;;;3.97;;
1154;SDS011;566;48.414;9.118;2023-05-19T07:03:08;12.90;;;4.15;;
1154;SDS011;566;48.414;9.118;2023-05-19T07:05:34;9.07;;;3.90;;
1154;SDS011;566;48.414;9.118;2023-05-19T07:07:59;9.75;;;4.15;;
1154;SDS011;566;48.414;9.118;2023-05-19T07:10:25;10.05;;;3.78;;
1154;SDS011;566;48.414;9.118;2023-05-19T07:12:51;9.18;;;4.22;;
1154;SDS011;566;48.414;9.118;2023-05-19T07:15:17;8.93;;;3.78;;
1154;SDS011;566;48.414;9.118;2023-05-19T07:17:42;11.18;;;4.18;;
1154;SDS011;566;48.414;9.118;2023-05-19T07:20:08;11.55;;;4.00;;
1154;SDS011;566;48.414;9.118;2023-05-19T07:22:34;7.72;;;3.60;;
1154;SDS011;566;48.414;9.118;2023-05-19T07:25:00;12.20;;;3.97;;
1154;SDS011;566;48.414;9.118;2023-05-19T07:27:26;12.73;;;4.30;;
1154;SDS011;566;48.414;9.118;2023-05-19T07:29:51;8.23;;;3.72;;
1154;SDS011;566;48.414;9.118;2023-05-19T07:32:17;12.25;;;4.18;;
1154;SDS011;566;48.414;9.118;2023-05-19T07:34:43;10.98;;;3.95;;
1154;SDS011;566;48.414;9.118;2023-05-19T07:37:11;11.20;;;3.70;;
1154;SDS011;566;48.414;9.118;2023-05-19T07:39:37;9.15;;;3.78;;
1154;SDS011;566;48.414;9.118;2023-05-19T07:42:02;14.38;;;4.78;;
1154;SDS011;566;48.414;9.118;2023-05-19T07:44:28;8.55;;;3.35;;
1154;SDS011;566;48.414;9.118;2023-05-19T07:46:55;8.18;;;3.35;;
1154;SDS011;566;48.414;9.118;2023-05-19T07:49:23;12.50;;;4.68;;
1154;SDS011;566;48.414;9.118;2023-05-19T07:51:49;11.50;;;3.65;;
1154;SDS011;566;48.414;9.118;2023-05-19T07:54:15;9.25;;;3.70;;
1154;SDS011;566;48.414;9.118;2023-05-19T07:56:41;11.05;;;4.15;;
1154;SDS011;566;48.414;9.118;2023-05-19T07:59:06;10.18;;;4.03;;
1154;SDS011;566;48.414;9.118;2023-05-19T08:01:32;10.85;;;4.18;;
1154;SDS011;566;48.414;9.118;2023-05-19T08:03:58;8.48;;;3.67;;
1154;SDS011;566;48.414;9.118;2023-05-19T08:06:23;8.52;;;4.07;;
1154;SDS011;566;48.414;9.118;2023-05-19T08:08:49;11.35;;;4.10;;
1154;SDS011;566;48.414;9.118;2023-05-19T08:11:22;9.18;;;3.83;;
1154;SDS011;566;48.414;9.118;2023-05-19T08:14:00;8.95;;;3.65;;
1154;SDS011;566;48.414;9.118;2023-05-19T08:16:25;10.25;;;3.72;;
1154;SDS011;566;48.414;9.118;2023-05-19T08:18:53;9.52;;;3.90;;
1154;SDS011;566;48.414;9.118;2023-05-19T08:21:24;6.95;;;3.47;;
1154;SDS011;566;48.414;9.118;2023-05-19T08:23:50;9.15;;;3.50;;
1154;SDS011;566;48.414;9.118;2023-05-19T08:26:15;8.70;;;3.30;;
1154;SDS011;566;48.414;9.118;2023-05-19T08:28:41;10.88;;;3.40;;
1154;SDS011;566;48.414;9.118;2023-05-19T08:31:08;6.72;;;3.25;;
1154;SDS011;566;48.414;9.118;2023-05-19T08:33:38;8.95;;;3.78;;
1154;SDS011;566;48.414;9.118;2023-05-19T08:36:15;7.38;;;3.72;;
1154;SDS011;566;48.414;9.118;2023-05-19T08:38:41;11.48;;;3.70;;
1154;SDS011;566;48.414;9.118;2023-05-19T08:41:06;9.00;;;3.65;;
1154;SDS011;566;48.414;9.118;2023-05-19T08:43:32;8.35;;;3.88;;
1154;SDS011;566;48.414;9.118;2023-05-19T08:45:59;7.93;;;3.78;;
1154;SDS011;566;48.414;9.118;2023-05-19T08:48:25;10.50;;;3.70;;
1154;SDS011;566;48.414;9.118;2023-05-19T08:53:49;7.55;;;3.20;;
1154;SDS011;566;48.414;9.118;2023-05-19T08:56:20;8.18;;;3.70;;
1154;SDS011;566;48.414;9.118;2023-05-19T08:58:48;8.43;;;3.40;;
1154;SDS011;566;48.414;9.118;2023-05-19T09:01:15;9.93;;;4.45;;
1154;SDS011;566;48.414;9.118;2023-05-19T09:03:42;14.70;;;5.25;;
1154;SDS011;566;48.414;9.118;2023-05-19T09:06:09;11.52;;;5.63;;
1154;SDS011;566;48.414;9.118;2023-05-19T09:08:38;10.50;;;5.07;;
1154;SDS011;566;48.414;9.118;2023-05-19T09:11:04;12.25;;;4.43;;
1154;SDS011;566;48.414;9.118;2023-05-19T09:13:30;12.43;;;5.53;;
1154;SDS011;566;48.414;9.118;2023-05-19T09:15:58;15.10;;;5.88;;
1154;SDS011;566;48.414;9.118;2023-05-19T09:18:24;10.70;;;4.65;;
1154;SDS011;566;48.414;9.118;2023-05-19T09:20:54;11.57;;;5.15;;
1154;SDS011;566;48.414;9.118;2023-05-19T09:23:27;13.15;;;4.82;;
1154;SDS011;566;48.414;9.118;2023-05-19T09:25:54;13.45;;;5.28;;
1154;SDS011;566;48.414;9.118;2023-05-19T09:28:27;11.88;;;4.82;;
1154;SDS011;566;48.414;9.118;2023-05-19T09:31:05;12.75;;;4.80;;
1154;SDS011;566;48.414;9.118;2023-05-19T09:33:38;13.55;;;5.60;;
1154;SDS011;566;48.414;9.118;2023-05-19T09:36:06;11.10;;;4.90;;
1154;SDS011;566;48.414;9.118;2023-05-19T09:38:40;12.50;;;5.47;;
1154;SDS011;566;48.414;9.118;2023-05-19T09:41:07;12.15;;;5.25;;
1154;SDS011;566;48.414;9.118;2023-05-19T09:43:33;11.68;;;5.25;;
1154;SDS011;566;48.414;9.118;2023-05-19T09:46:02;14.27;;;5.18;;
1154;SDS011;566;48.414;9.118;2023-05-19T09:48:34;14.13;;;6.53;;
1154;SDS011;566;48.414;9.118;2023-05-19T09:51:01;14.95;;;6.90;;
1154;SDS011;566;48.414;9.118;2023-05-19T09:53:29;11.07;;;6.38;;
1154;SDS011;566;48.414;9.118;2023-05-19T09:55:59;20.30;;;6.85;;
1154;SDS011;566;48.414;9.118;2023-05-19T09:58:29;15.98;;;6.45;;
1154;SDS011;566;48.414;9.118;2023-05-19T10:00:58;12.30;;;5.93;;
1154;SDS011;566;48.414;9.118;2023-05-19T10:03:25;11.75;;;5.25;;
1154;SDS011;566;48.414;9.118;2023-05-19T10:05:52;10.27;;;5.03;;
1154;SDS011;566;48.414;9.118;2023-05-19T10:08:18;14.05;;;5.25;;
1154;SDS011;566;48.414;9.118;2023-05-19T10:10:45;12.48;;;4.90;;
1154;SDS011;566;48.414;9.118;2023-05-19T10:13:12;15.00;;;6.60;;
1154;SDS011;566;48.414;9.118;2023-05-19T10:15:41;10.73;;;5.28;;
1154;SDS011;566;48.414;9.118;2023-05-19T10:18:08;11.85;;;6.10;;
1154;SDS011;566;48.414;9.118;2023-05-19T10:20:34;10.32;;;4.90;;
1154;SDS011;566;48.414;9.118;2023-05-19T10:23:01;14.55;;;5.72;;
1154;SDS011;566;48.414;9.118;2023-05-19T10:25:28;13.07;;;5.05;;
1154;SDS011;566;48.414;9.118;2023-05-19T10:28:10;12.73;;;5.70;;
1154;SDS011;566;48.414;9.118;2023-05-19T10:30:40;13.82;;;5.22;;
1154;SDS011;566;48.414;9.118;2023-05-19T10:33:09;15.65;;;5.50;;
1154;SDS011;566;48.414;9.118;2023-05-19T10:41:03;13.82;;;4.93;;
1154;SDS011;566;48.414;9.118;2023-05-19T10:46:23;10.82;;;5.00;;
1154;SDS011;566;48.414;9.118;2023-05-19T10:48:50;10.77;;;4.97;;
1154;SDS011;566;48.414;9.118;2023-05-19T10:51:16;10.98;;;4.47;;
1154;SDS011;566;48.414;9.118;2023-05-19T10:53:42;7.93;;;4.38;;
1154;SDS011;566;48.414;9.118;2023-05-19T10:56:10;14.95;;;4.63;;
1154;SDS011;566;48.414;9.118;2023-05-19T10:58:53;13.77;;;5.05;;
1154;SDS011;566;48.414;9.118;2023-05-19T11:01:18;9.35;;;4.63;;
1154;SDS011;566;48.414;9.118;2023-05-19T11:03:46;11.10;;;5.20;;
1154;SDS011;566;48.414;9.118;2023-05-19T11:06:21;12.05;;;5.07;;
1154;SDS011;566;48.414;9.118;2023-05-19T11:09:01;9.73;;;5.20;;
1154;SDS011;566;48.414;9.118;2023-05-19T11:11:48;9.95;;;4.60;;
1154;SDS011;566;48.414;9.118;2023-05-19T11:14:22;12.88;;;4.60;;
1154;SDS011;566;48.414;9.118;2023-05-19T11:16:55;10.35;;;5.00;;
1154;SDS011;566;48.414;9.118;2023-05-19T11:19:29;13.23;;;5.68;;
1154;SDS011;566;48.414;9.118;2023-05-19T11:22:06;8.52;;;4.55;;
1154;SDS011;566;48.414;9.118;2023-05-19T11:24:39;13.15;;;5.00;;
1154;SDS011;566;48.414;9.118;2023-05-19T11:30:09;15.00;;;5.70;;
1154;SDS011;566;48.414;9.118;2023-05-19T11:32:38;11.88;;;4.95;;
1154;SDS011;566;48.414;9.118;2023-05-19T11:35:06;15.48;;;5.20;;
1154;SDS011;566;48.414;9.118;2023-05-19T11:37:34;11.10;;;4.78;;
1154;SDS011;566;48.414;9.118;2023-05-19T11:40:03;15.45;;;5.95;;
1154;SDS011;566;48.414;9.118;2023-05-19T11:42:33;9.68;;;5.00;;
1154;SDS011;566;48.414;9.118;2023-05-19T11:44:59;14.48;;;4.95;;
1154;SDS011;566;48.414;9.118;2023-05-19T11:47:25;10.52;;;4.80;;
1154;SDS011;566;48.414;9.118;2023-05-19T11:49:52;12.25;;;5.32;;
1154;SDS011;566;48.414;9.118;2023-05-19T11:52:25;14.93;;;4.90;;
1154;SDS011;566;48.414;9.118;2023-05-19T11:54:54;12.20;;;5.18;;
1154;SDS011;566;48.414;9.118;2023-05-19T11:57:24;12.18;;;5.30;;
1154;SDS011;566;48.414;9.118;2023-05-19T11:59:50;14.13;;;5.28;;
1154;SDS011;566;48.414;9.118;2023-05-19T12:02:18;11.10;;;4.50;;
1154;SDS011;566;48.414;9.118;2023-05-19T12:04:45;10.45;;;4.40;;
1154;SDS011;566;48.414;9.118;2023-05-19T12:07:14;11.75;;;4.70;;
1154;SDS011;566;48.414;9.118;2023-05-19T12:09:44;9.88;;;4.57;;
1154;SDS011;566;48.414;9.118;2023-05-19T12:12:14;11.48;;;5.38;;
1154;SDS011;566;48.414;9.118;2023-05-19T12:14:41;12.02;;;5.03;;
1154;SDS011;566;48.414;9.118;2023-05-19T12:17:16;12.00;;;4.75;;
1154;SDS011;566;48.414;9.118;2023-05-19T12:19:48;9.52;;;4.38;;
1154;SDS011;566;48.414;9.118;2023-05-19T12:22:14;11.05;;;4.72;;
1154;SDS011;566;48.414;9.118;2023-05-19T12:24:41;9.93;;;3.90;;
1154;SDS011;566;48.414;9.118;2023-05-19T12:27:11;9.38;;;4.20;;
1154;SDS011;566;48.414;9.118;2023-05-19T12:29:40;13.37;;;5.23;;
1154;SDS011;566;48.414;9.118;2023-05-19T12:32:06;9.93;;;4.53;;
1154;SDS011;566;48.414;9.118;2023-05-19T12:34:36;12.63;;;4.47;;
1154;SDS011;566;48.414;9.118;2023-05-19T12:37:02;10.85;;;4.63;;
1154;SDS011;566;48.414;9.118;2023-05-19T12:39:29;8.82;;;4.25;;
1154;SDS011;566;48.414;9.118;2023-05-19T12:42:01;11.57;;;4.90;;
1154;SDS011;566;48.414;9.118;2023-05-19T12:44:48;9.52;;;4.63;;
1154;SDS011;566;48.414;9.118;2023-05-19T12:47:16;9.77;;;4.50;;
1154;SDS011;566;48.414;9.118;2023-05-19T12:49:59;14.07;;;5.43;;
1154;SDS011;566;48.414;9.118;2023-05-19T12:52:30;12.13;;;5.43;;
1154;SDS011;566;48.414;9.118;2023-05-19T12:55:00;13.52;;;5.43;;
1154;SDS011;566;48.414;9.118;2023-05-19T12:57:28;9.15;;;5.30;;
1154;SDS011;566;48.414;9.118;2023-05-19T13:00:01;9.70;;;5.30;;
1154;SDS011;566;48.414;9.118;2023-05-19T13:05:18;11.07;;;5.47;;
1154;SDS011;566;48.414;9.118;2023-05-19T13:07:54;11.45;;;4.75;;
1154;SDS011;566;48.414;9.118;2023-05-19T13:10:20;8.95;;;4.70;;
1154;SDS011;566;48.414;9.118;2023-05-19T13:12:47;10.38;;;4.93;;
1154;SDS011;566;48.414;9.118;2023-05-19T13:15:13;9.38;;;5.13;;
1154;SDS011;566;48.414;9.118;2023-05-19T13:17:39;11.98;;;4.78;;
1154;SDS011;566;48.414;9.118;2023-05-19T13:20:04;10.98;;;4.72;;
1154;SDS011;566;48.414;9.118;2023-05-19T13:22:30;8.35;;;4.63;;
1154;SDS011;566;48.414;9.118;2023-05-19T13:24:56;9.00;;;4.65;;
1154;SDS011;566;48.414;9.118;2023-05-19T13:27:26;10.60;;;5.07;;
1154;SDS011;566;48.414;9.118;2023-05-19T13:29:51;9.00;;;5.10;;
1154;SDS011;566;48.414;9.118;2023-05-19T13:32:17;9.35;;;4.75;;
1154;SDS011;566;48.414;9.118;2023-05-19T13:34:42;10.10;;;4.72;;
1154;SDS011;566;48.414;9.118;2023-05-19T13:37:08;7.03;;;4.50;;
1154;SDS011;566;48.414;9.118;2023-05-19T13:39:34;7.88;;;4.78;;
1154;SDS011;566;48.414;9.118;2023-05-19T13:42:00;9.10;;;4.50;;
1154;SDS011;566;48.414;9.118;2023-05-19T13:44:25;12.75;;;5.30;;
1154;SDS011;566;48.414;9.118;2023-05-19T13:46:51;11.45;;;5.38;;
1154;SDS011;566;48.414;9.118;2023-05-19T13:49:17;11.07;;;5.32;;
1154;SDS011;566;48.414;9.118;2023-05-19T13:51:42;12.73;;;5.45;;
1154;SDS011;566;48.414;9.118;2023-05-19T13:54:08;9.73;;;4.68;;
1154;SDS011;566;48.414;9.118;2023-05-19T13:56:34;10.90;;;5.30;;
1154;SDS011;566;48.414;9.118;2023-05-19T13:59:00;9.80;;;5.72;;
1154;SDS011;566;48.414;9.118;2023-05-19T14:01:27;8.40;;;4.72;;
1154;SDS011;566;48.414;9.118;2023-05-19T14:03:53;10.68;;;4.88;;
1154;SDS011;566;48.414;9.118;2023-05-19T14:08:52;8.43;;;4.90;;
1154;SDS011;566;48.414;9.118;2023-05-19T14:11:18;10.00;;;5.15;;
1154;SDS011;566;48.414;9.118;2023-05-19T14:13:46;9.10;;;4.85;;
1154;SDS011;566;48.414;9.118;2023-05-19T14:16:12;10.68;;;4.93;;
1154;SDS011;566;48.414;9.118;2023-05-19T14:18:38;10.05;;;5.35;;
1154;SDS011;566;48.414;9.118;2023-05-19T14:21:04;10.60;;;5.32;;
1154;SDS011;566;48.414;9.118;2023-05-19T14:23:31;10.48;;;5.93;;
1154;SDS011;566;48.414;9.118;2023-05-19T14:25:57;10.65;;;5.88;;
1154;SDS011;566;48.414;9.118;2023-05-19T14:28:23;13.32;;;6.72;;
1154;SDS011;566;48.414;9.118;2023-05-19T14:30:48;10.90;;;5.90;;
1154;SDS011;566;48.414;9.118;2023-05-19T14:33:15;11.32;;;6.10;;
1154;SDS011;566;48.414;9.118;2023-05-19T14:35:41;11.18;;;6.15;;
1154;SDS011;566;48.414;9.118;2023-05-19T14:38:07;9.15;;;5.70;;
1154;SDS011;566;48.414;9.118;2023-05-19T14:40:32;10.52;;;4.90;;
1154;SDS011;566;48.414;9.118;2023-05-19T14:43:00;10.45;;;5.65;;
1154;SDS011;566;48.414;9.118;2023-05-19T14:45:25;10.82;;;6.03;;
1154;SDS011;566;48.414;9.118;2023-05-19T14:47:51;11.88;;;5.78;;
1154;SDS011;566;48.414;9.118;2023-05-19T14:50:16;12.20;;;5.78;;
1154;SDS011;566;48.414;9.118;2023-05-19T14:52:42;13.80;;;6.07;;
1154;SDS011;566;48.414;9.118;2023-05-19T14:55:08;14.95;;;5.80;;
1154;SDS011;566;48.414;9.118;2023-05-19T14:57:33;13.68;;;5.32;;
1154;SDS011;566;48.414;9.118;2023-05-19T14:59:59;10.30;;;5.78;;
1154;SDS011;566;48.414;9.118;2023-05-19T15:02:24;9.80;;;5.88;;
1154;SDS011;566;48.414;9.118;2023-05-19T15:04:50;9.88;;;5.45;;
1154;SDS011;566;48.414;9.118;2023-05-19T15:07:16;9.07;;;5.40;;
1154;SDS011;566;48.414;9.118;2023-05-19T15:09:41;12.15;;;5.40;;
1154;SDS011;566;48.414;9.118;2023-05-19T15:12:07;11.25;;;5.28;;
1154;SDS011;566;48.414;9.118;2023-05-19T15:14:33;10.52;;;5.05;;
1154;SDS011;566;48.414;9.118;2023-05-19T15:16:58;11.65;;;6.07;;
1154;SDS011;566;48.414;9.118;2023-05-19T15:19:24;8.55;;;5.15;;
1154;SDS011;566;48.414;9.118;2023-05-19T15:21:49;10.07;;;5.20;;
1154;SDS011;566;48.414;9.118;2023-05-19T15:24:15;10.90;;;5.45;;
1154;SDS011;566;48.414;9.118;2023-05-19T15:26:40;10.48;;;4.97;;
1154;SDS011;566;48.414;9.118;2023-05-19T15:29:06;11.90;;;5.40;;
1154;SDS011;566;48.414;9.118;2023-05-19T15:31:32;10.10;;;5.32;;
1154;SDS011;566;48.414;9.118;2023-05-19T15:33:57;11.05;;;5.15;;
1154;SDS011;566;48.414;9.118;2023-05-19T15:36:23;12.02;;;5.95;;
1154;SDS011;566;48.414;9.118;2023-05-19T15:38:48;10.93;;;5.40;;
1154;SDS011;566;48.414;9.118;2023-05-19T15:41:17;12.60;;;5.30;;
1154;SDS011;566;48.414;9.118;2023-05-19T15:43:42;11.82;;;5.80;;
1154;SDS011;566;48.414;9.118;2023-05-19T15:46:10;13.98;;;6.25;;
1154;SDS011;566;48.414;9.118;2023-05-19T15:48:37;11.25;;;5.05;;
1154;SDS011;566;48.414;9.118;2023-05-19T15:51:02;10.40;;;5.28;;
1154;SDS011;566;48.414;9.118;2023-05-19T15:53:28;11.90;;;5.13;;
1154;SDS011;566;48.414;9.118;2023-05-19T15:55:54;10.13;;;4.90;;
1154;SDS011;566;48.414;9.118;2023-05-19T15:58:21;11.68;;;5.60;;